createdAt,value
2018-07-27T00:02:25.730Z,97678.00
2018-07-27T00:04:57.445Z,97673.00
2018-07-27T00:07:29.461Z,97667.00
2018-07-27T00:10:00.697Z,97674.00
2018-07-27T00:12:32.417Z,97672.00
2018-07-27T00:15:04.431Z,97669.00
2018-07-27T00:17:36.054Z,97670.00
2018-07-27T00:20:08.052Z,97675.00
2018-07-27T00:22:40.251Z,97672.00
2018-07-27T00:25:12.067Z,97677.00
2018-07-27T00:27:43.823Z,97672.00
2018-07-27T00:30:15.699Z,97674.00
2018-07-27T00:32:47.333Z,97672.00
2018-07-27T00:35:19.165Z,97674.00
2018-07-27T00:37:50.841Z,97674.00
2018-07-27T00:40:22.735Z,97673.00
2018-07-27T00:42:54.536Z,97671.00
2018-07-27T00:45:26.334Z,97667.00
2018-07-27T00:47:57.976Z,97665.00
2018-07-27T00:50:29.821Z,97666.00
2018-07-27T00:53:01.587Z,97668.00
2018-07-27T00:55:33.253Z,97668.00
2018-07-27T00:58:04.992Z,97670.00
2018-07-27T01:00:36.697Z,97670.00
2018-07-27T01:03:08.838Z,97665.00
2018-07-27T01:05:40.505Z,97664.00
2018-07-27T01:08:12.336Z,97664.00
2018-07-27T01:10:44.198Z,97664.00
2018-07-27T01:13:16.003Z,97666.00
2018-07-27T01:15:47.745Z,97671.00
2018-07-27T01:18:19.425Z,97669.00
2018-07-27T01:20:51.056Z,97668.00
2018-07-27T01:23:22.914Z,97662.00
2018-07-27T01:25:54.762Z,97657.00
2018-07-27T01:28:26.549Z,97655.00
2018-07-27T01:30:58.306Z,97659.00
2018-07-27T01:33:30.081Z,97660.00
2018-07-27T01:36:01.798Z,97655.00
2018-07-27T01:38:33.467Z,97660.00
2018-07-27T01:41:05.358Z,97657.00
2018-07-27T01:43:36.992Z,97662.00
2018-07-27T01:46:08.754Z,97660.00
2018-07-27T01:48:40.482Z,97658.00
2018-07-27T01:51:12.150Z,97654.00
2018-07-27T01:53:43.901Z,97660.00
2018-07-27T01:56:15.689Z,97661.00
2018-07-27T01:58:47.329Z,97663.00
2018-07-27T02:01:19.182Z,97658.00
2018-07-27T02:03:51.087Z,97659.00
2018-07-27T02:06:22.705Z,97663.00
2018-07-27T02:08:54.573Z,97657.00
2018-07-27T02:11:26.549Z,97659.00
2018-07-27T02:13:58.481Z,97661.00
2018-07-27T02:16:30.246Z,97659.00
2018-07-27T02:19:01.923Z,97654.00
2018-07-27T02:21:33.865Z,97659.00
2018-07-27T02:24:05.630Z,97660.00
2018-07-27T02:26:37.398Z,97659.00
2018-07-27T02:29:09.233Z,97662.00
2018-07-27T02:31:41.053Z,97662.00
2018-07-27T02:34:12.850Z,97665.00
2018-07-27T02:36:44.688Z,97665.00
2018-07-27T02:39:16.340Z,97665.00
2018-07-27T02:41:48.161Z,97667.00
2018-07-27T02:44:20.103Z,97657.00
2018-07-27T02:46:51.908Z,97663.00
2018-07-27T02:49:23.668Z,97662.00
2018-07-27T02:51:55.397Z,97661.00
2018-07-27T02:54:27.154Z,97661.00
2018-07-27T02:56:58.922Z,97662.00
2018-07-27T02:59:30.665Z,97658.00
2018-07-27T03:02:02.540Z,97659.00
2018-07-27T03:04:34.369Z,97658.00
2018-07-27T03:07:06.073Z,97661.00
2018-07-27T03:09:37.757Z,97662.00
2018-07-27T03:12:09.755Z,97665.00
2018-07-27T03:14:41.649Z,97665.00
2018-07-27T03:17:13.283Z,97667.00
2018-07-27T03:19:45.048Z,97666.00
2018-07-27T03:22:16.789Z,97666.00
2018-07-27T03:24:48.454Z,97660.00
2018-07-27T03:27:20.121Z,97655.00
2018-07-27T03:29:51.972Z,97656.00
2018-07-27T03:32:23.746Z,97653.00
2018-07-27T03:34:55.532Z,97656.00
2018-07-27T03:37:27.256Z,97657.00
2018-07-27T03:39:59.102Z,97657.00
2018-07-27T03:42:30.866Z,97656.00
2018-07-27T03:45:02.724Z,97657.00
2018-07-27T03:47:34.406Z,97658.00
2018-07-27T03:50:06.674Z,97660.00
2018-07-27T03:52:38.508Z,97659.00
2018-07-27T03:55:10.203Z,97655.00
2018-07-27T03:57:41.845Z,97661.00
2018-07-27T04:00:14.502Z,97661.00
2018-07-27T04:02:46.285Z,97668.00
2018-07-27T04:05:17.971Z,97668.00
2018-07-27T04:07:49.592Z,97670.00
2018-07-27T04:10:21.421Z,97671.00
2018-07-27T04:12:53.228Z,97662.00
2018-07-27T04:15:24.982Z,97669.00
2018-07-27T04:18:01.032Z,97669.00
2018-07-27T04:20:32.788Z,97666.00
2018-07-27T04:23:04.457Z,97667.00
2018-07-27T04:25:36.397Z,97669.00
2018-07-27T04:28:07.945Z,97667.00
2018-07-27T04:30:39.808Z,97672.00
2018-07-27T04:33:11.617Z,97665.00
2018-07-27T04:35:43.386Z,97664.00
2018-07-27T04:38:14.991Z,97664.00
2018-07-27T04:40:46.737Z,97668.00
2018-07-27T04:43:18.548Z,97673.00
2018-07-27T04:45:50.360Z,97675.00
2018-07-27T04:48:22.124Z,97675.00
2018-07-27T04:50:53.785Z,97674.00
2018-07-27T04:53:25.543Z,97670.00
2018-07-27T04:55:57.447Z,97675.00
2018-07-27T04:58:29.066Z,97672.00
2018-07-27T05:01:00.741Z,97669.00
2018-07-27T05:03:32.461Z,97665.00
2018-07-27T05:06:04.380Z,97665.00
2018-07-27T05:08:40.029Z,97665.00
2018-07-27T05:11:11.791Z,97663.00
2018-07-27T05:13:43.630Z,97660.00
2018-07-27T05:16:15.464Z,97662.00
2018-07-27T05:18:47.133Z,97666.00
2018-07-27T05:21:18.798Z,97664.00
2018-07-27T05:23:50.582Z,97666.00
2018-07-27T05:26:22.445Z,97672.00
2018-07-27T05:28:54.173Z,97669.00
2018-07-27T05:31:26.024Z,97667.00
2018-07-27T05:33:57.773Z,97664.00
2018-07-27T05:36:29.581Z,97670.00
2018-07-27T05:39:01.490Z,97664.00
2018-07-27T05:41:33.253Z,97670.00
2018-07-27T05:44:05.125Z,97671.00
2018-07-27T05:46:36.903Z,97676.00
2018-07-27T05:49:08.742Z,97682.00
2018-07-27T05:51:40.521Z,97684.00
2018-07-27T05:54:12.328Z,97685.00
2018-07-27T05:56:44.245Z,97679.00
2018-07-27T05:59:16.078Z,97680.00
2018-07-27T06:01:47.856Z,97679.00
2018-07-27T06:04:19.518Z,97677.00
2018-07-27T06:06:51.404Z,97678.00
2018-07-27T06:09:22.591Z,97681.00
2018-07-27T06:11:54.512Z,97687.00
2018-07-27T06:14:26.252Z,97687.00
2018-07-27T06:16:58.101Z,97683.00
2018-07-27T06:19:29.873Z,97685.00
2018-07-27T06:22:01.810Z,97687.00
2018-07-27T06:25:04.305Z,97684.00
2018-07-27T06:27:36.134Z,97680.00
2018-07-27T06:30:08.764Z,97683.00
2018-07-27T06:32:40.408Z,97685.00
2018-07-27T06:35:12.246Z,97684.00
2018-07-27T06:37:43.933Z,97680.00
2018-07-27T06:40:15.680Z,97684.00
2018-07-27T06:42:47.622Z,97687.00
2018-07-27T06:45:19.393Z,97684.00
2018-07-27T06:47:51.298Z,97685.00
2018-07-27T06:50:23.141Z,97693.00
2018-07-27T06:52:54.893Z,97684.00
2018-07-27T06:55:26.772Z,97688.00
2018-07-27T06:57:58.393Z,97690.00
2018-07-27T07:00:30.076Z,97696.00
2018-07-27T07:03:01.893Z,97694.00
2018-07-27T07:05:33.577Z,97689.00
2018-07-27T07:08:05.272Z,97685.00
2018-07-27T07:10:37.177Z,97684.00
2018-07-27T07:13:08.939Z,97692.00
2018-07-27T07:15:40.715Z,97688.00
2018-07-27T07:18:12.469Z,97681.00
2018-07-27T07:20:44.354Z,97685.00
2018-07-27T07:23:16.054Z,97685.00
2018-07-27T07:25:47.875Z,97683.00
2018-07-27T07:28:19.397Z,97676.00
2018-07-27T07:30:51.161Z,97682.00
2018-07-27T07:33:22.937Z,97677.00
2018-07-27T07:35:54.624Z,97677.00
2018-07-27T07:38:26.520Z,97677.00
2018-07-27T07:40:58.482Z,97675.00
2018-07-27T07:43:30.294Z,97674.00
2018-07-27T07:46:02.022Z,97671.00
2018-07-27T07:48:33.664Z,97665.00
2018-07-27T07:51:05.446Z,97667.00
2018-07-27T07:53:37.174Z,97668.00
2018-07-27T07:56:08.856Z,97664.00
2018-07-27T07:58:40.599Z,97661.00
2018-07-27T08:01:12.366Z,97653.00
2018-07-27T08:03:44.141Z,97661.00
2018-07-27T08:06:15.971Z,97659.00
2018-07-27T08:08:47.832Z,97659.00
2018-07-27T08:11:19.643Z,97661.00
2018-07-27T08:13:52.485Z,97660.00
2018-07-27T08:16:24.266Z,97659.00
2018-07-27T08:18:56.025Z,97660.00
2018-07-27T08:21:28.568Z,97659.00
2018-07-27T08:24:00.349Z,97654.00
2018-07-27T08:27:17.200Z,97651.00
2018-07-27T08:29:48.853Z,97642.00
2018-07-27T08:32:20.716Z,97644.00
2018-07-27T08:34:52.384Z,97646.00
2018-07-27T08:37:23.998Z,97643.00
2018-07-27T08:39:55.709Z,97648.00
2018-07-27T08:42:27.598Z,97643.00
2018-07-27T08:44:59.310Z,97636.00
2018-07-27T08:47:31.145Z,97640.00
2018-07-27T08:50:02.823Z,97633.00
2018-07-27T08:52:34.572Z,97633.00
2018-07-27T08:55:06.421Z,97627.00
2018-07-27T08:57:38.106Z,97626.00
2018-07-27T09:00:09.912Z,97627.00
2018-07-27T09:02:41.721Z,97623.00
2018-07-27T09:05:13.458Z,97619.00
2018-07-27T09:07:45.289Z,97617.00
2018-07-27T09:10:17.151Z,97614.00
2018-07-27T09:12:48.934Z,97613.00
2018-07-27T09:15:20.863Z,97607.00
2018-07-27T09:17:52.543Z,97604.00
2018-07-27T09:20:24.210Z,97599.00
2018-07-27T09:22:56.047Z,97604.00
2018-07-27T09:25:27.870Z,97607.00
2018-07-27T09:27:59.472Z,97602.00
2018-07-27T09:30:31.588Z,97597.00
2018-07-27T09:33:03.204Z,97597.00
2018-07-27T09:35:35.032Z,97596.00
2018-07-27T09:38:06.897Z,97600.00
2018-07-27T09:40:38.847Z,97595.00
2018-07-27T09:43:10.681Z,97594.00
2018-07-27T09:45:42.315Z,97585.00
2018-07-27T09:48:14.198Z,97585.00
2018-07-27T09:50:46.404Z,97585.00
2018-07-27T09:53:18.205Z,97581.00
2018-07-27T09:55:49.934Z,97584.00
2018-07-27T09:58:21.849Z,97585.00
2018-07-27T10:00:58.524Z,97580.00
2018-07-27T10:03:30.353Z,97585.00
2018-07-27T10:06:02.146Z,97581.00
2018-07-27T10:08:33.492Z,97576.00
2018-07-27T10:11:05.106Z,97577.00
2018-07-27T10:13:36.894Z,97578.00
2018-07-27T10:16:09.277Z,97578.00
2018-07-27T10:18:40.904Z,97582.00
2018-07-27T10:21:12.750Z,97578.00
2018-07-27T10:23:44.474Z,97575.00
2018-07-27T10:26:16.289Z,97576.00
2018-07-27T10:28:48.076Z,97576.00
2018-07-27T10:31:19.282Z,97566.00
2018-07-27T10:33:51.079Z,97565.00
2018-07-27T10:36:22.798Z,97567.00
2018-07-27T10:38:54.573Z,97570.00
2018-07-27T10:41:26.357Z,97571.00
2018-07-27T10:43:58.117Z,97558.00
2018-07-27T10:46:29.769Z,97564.00
2018-07-27T10:49:01.587Z,97561.00
2018-07-27T10:51:33.393Z,97556.00
2018-07-27T10:54:05.121Z,97561.00
2018-07-27T10:56:36.916Z,97556.00
2018-07-27T10:59:09.172Z,97552.00
2018-07-27T11:01:41.043Z,97554.00
2018-07-27T11:04:12.678Z,97545.00
2018-07-27T11:06:44.504Z,97548.00
2018-07-27T11:09:16.185Z,97548.00
2018-07-27T11:11:47.964Z,97553.00
2018-07-27T11:14:19.884Z,97552.00
2018-07-27T11:16:51.679Z,97552.00
2018-07-27T11:19:23.437Z,97552.00
2018-07-27T11:21:55.272Z,97553.00
2018-07-27T11:24:27.179Z,97552.00
2018-07-27T11:26:58.877Z,97552.00
2018-07-27T11:29:31.026Z,97550.00
2018-07-27T11:32:03.072Z,97553.00
2018-07-27T11:34:34.830Z,97553.00
2018-07-27T11:37:06.746Z,97551.00
2018-07-27T11:39:38.553Z,97556.00
2018-07-27T11:42:10.189Z,97560.00
2018-07-27T11:44:42.067Z,97559.00
2018-07-27T11:47:13.931Z,97554.00
2018-07-27T11:49:45.664Z,97553.00
2018-07-27T11:52:17.417Z,97549.00
2018-07-27T11:54:49.210Z,97555.00
2018-07-27T11:57:20.935Z,97561.00
2018-07-27T11:59:52.679Z,97562.00
2018-07-27T12:02:24.350Z,97556.00
2018-07-27T12:04:56.019Z,97557.00
2018-07-27T12:07:27.854Z,97555.00
2018-07-27T12:09:59.510Z,97552.00
2018-07-27T12:12:31.293Z,97551.00
2018-07-27T12:15:03.350Z,97551.00
2018-07-27T12:17:35.036Z,97551.00
2018-07-27T12:20:06.794Z,97553.00
2018-07-27T12:22:38.600Z,97550.00
2018-07-27T12:25:10.389Z,97555.00
2018-07-27T12:27:42.056Z,97562.00
2018-07-27T12:30:13.789Z,97558.00
2018-07-27T12:32:45.610Z,97563.00
2018-07-27T12:35:17.217Z,97559.00
2018-07-27T12:37:48.873Z,97558.00
2018-07-27T12:40:20.645Z,97564.00
2018-07-27T12:42:52.473Z,97558.00
2018-07-27T12:45:24.306Z,97562.00
2018-07-27T12:47:56.027Z,97559.00
2018-07-27T12:50:27.674Z,97560.00
2018-07-27T12:52:59.434Z,97561.00
2018-07-27T12:55:31.162Z,97560.00
2018-07-27T12:58:02.938Z,97553.00
2018-07-27T13:00:34.602Z,97549.00
2018-07-27T13:03:06.647Z,97541.00
2018-07-27T13:05:38.461Z,97539.00
2018-07-27T13:08:10.268Z,97539.00
2018-07-27T13:10:42.204Z,97529.00
2018-07-27T13:13:14.014Z,97528.00
2018-07-27T13:15:45.902Z,97532.00
2018-07-27T13:18:17.620Z,97537.00
2018-07-27T13:20:58.490Z,97529.00
2018-07-27T13:23:34.909Z,97521.00
2018-07-27T13:28:46.302Z,97526.00
2018-07-27T13:32:01.767Z,97526.00
2018-07-27T13:34:44.333Z,97521.00
2018-07-27T13:37:17.505Z,97517.00
2018-07-27T13:39:50.636Z,97515.00
2018-07-27T13:42:23.895Z,97512.00
2018-07-27T13:44:56.179Z,97511.00
2018-07-27T13:47:28.092Z,97507.00
2018-07-27T13:49:59.972Z,97495.00
2018-07-27T13:52:31.706Z,97493.00
2018-07-27T13:55:03.350Z,97485.00
2018-07-27T13:57:35.033Z,97482.00
2018-07-27T14:00:06.973Z,97483.00
2018-07-27T14:02:38.824Z,97471.00
2018-07-27T14:05:10.557Z,97474.00
2018-07-27T14:07:42.439Z,97475.00
2018-07-27T14:10:14.146Z,97470.00
2018-07-27T14:12:45.909Z,97464.00
2018-07-27T14:15:17.590Z,97459.00
2018-07-27T14:17:49.464Z,97455.00
2018-07-27T14:20:21.205Z,97455.00
2018-07-27T14:22:52.916Z,97451.00
2018-07-27T14:25:24.597Z,97444.00
2018-07-27T14:27:56.230Z,97440.00
2018-07-27T14:30:28.030Z,97435.00
2018-07-27T14:32:59.200Z,97434.00
2018-07-27T14:35:30.909Z,97429.00
2018-07-27T14:38:02.534Z,97427.00
2018-07-27T14:40:34.359Z,97418.00
2018-07-27T14:43:06.376Z,97424.00
2018-07-27T14:45:38.292Z,97415.00
2018-07-27T14:48:10.238Z,97414.00
2018-07-27T14:50:42.130Z,97416.00
2018-07-27T14:53:14.100Z,97407.00
2018-07-27T14:55:45.840Z,97409.00
2018-07-27T14:58:17.741Z,97400.00
2018-07-27T15:00:49.461Z,97403.00
2018-07-27T15:03:21.389Z,97398.00
2018-07-27T15:05:53.007Z,97397.00
2018-07-27T15:08:24.781Z,97399.00
2018-07-27T15:10:56.780Z,97390.00
2018-07-27T15:13:28.490Z,97391.00
2018-07-27T15:16:00.209Z,97381.00
2018-07-27T15:18:31.993Z,97378.00
2018-07-27T15:21:03.725Z,97373.00
2018-07-27T15:23:34.802Z,97374.00
2018-07-27T15:26:06.437Z,97375.00
2018-07-27T15:28:38.109Z,97369.00
2018-07-27T15:31:09.966Z,97361.00
2018-07-27T15:33:41.834Z,97361.00
2018-07-27T15:36:13.656Z,97354.00
2018-07-27T15:38:45.468Z,97357.00
2018-07-27T15:41:17.057Z,97354.00
2018-07-27T15:43:48.207Z,97349.00
2018-07-27T15:46:19.861Z,97348.00
2018-07-27T15:48:51.476Z,97346.00
2018-07-27T15:51:23.177Z,97350.00
2018-07-27T15:53:54.785Z,97345.00
2018-07-27T15:56:26.494Z,97350.00
2018-07-27T15:58:58.293Z,97346.00
2018-07-27T16:01:30.021Z,97339.00
2018-07-27T16:04:01.878Z,97337.00
2018-07-27T16:06:33.638Z,97336.00
2018-07-27T16:09:07.121Z,97340.00
2018-07-27T16:11:38.939Z,97336.00
2018-07-27T16:14:10.706Z,97334.00
2018-07-27T16:16:42.323Z,97330.00
2018-07-27T16:19:14.101Z,97324.00
2018-07-27T16:21:45.870Z,97319.00
2018-07-27T16:24:17.649Z,97321.00
2018-07-27T16:26:49.248Z,97321.00
2018-07-27T16:29:20.961Z,97321.00
2018-07-27T16:31:52.848Z,97318.00
2018-07-27T16:34:24.567Z,97320.00
2018-07-27T16:36:56.197Z,97321.00
2018-07-27T16:39:28.124Z,97322.00
2018-07-27T16:41:59.882Z,97330.00
2018-07-27T16:44:31.585Z,97325.00
2018-07-27T16:47:03.338Z,97329.00
2018-07-27T16:49:35.135Z,97324.00
2018-07-27T16:52:07.021Z,97327.00
2018-07-27T16:54:38.985Z,97327.00
2018-07-27T16:57:10.570Z,97331.00
2018-07-27T16:59:42.358Z,97331.00
2018-07-27T17:02:14.260Z,97334.00
2018-07-27T17:04:45.887Z,97334.00
2018-07-27T17:07:17.682Z,97335.00
2018-07-27T17:09:49.640Z,97334.00
2018-07-27T17:12:21.356Z,97336.00
2018-07-27T17:14:53.232Z,97331.00
2018-07-27T17:17:25.234Z,97335.00
2018-07-27T17:19:57.250Z,97333.00
2018-07-27T17:22:29.146Z,97337.00
2018-07-27T17:25:00.881Z,97334.00
2018-07-27T17:27:32.625Z,97330.00
2018-07-27T17:30:04.341Z,97341.00
2018-07-27T17:32:36.313Z,97341.00
2018-07-27T17:35:08.022Z,97339.00
2018-07-27T17:37:39.889Z,97338.00
2018-07-27T17:40:11.524Z,97338.00
2018-07-27T17:42:43.309Z,97340.00
2018-07-27T17:45:15.066Z,97341.00
2018-07-27T17:47:46.727Z,97343.00
2018-07-27T17:50:18.663Z,97339.00
2018-07-27T17:52:50.610Z,97338.00
2018-07-27T17:55:22.303Z,97339.00
2018-07-27T17:57:54.281Z,97334.00
2018-07-27T18:00:26.461Z,97339.00
2018-07-27T18:02:58.261Z,97333.00
2018-07-27T18:05:30.177Z,97333.00
2018-07-27T18:08:01.977Z,97333.00
2018-07-27T18:10:33.667Z,97333.00
2018-07-27T18:13:05.547Z,97337.00
2018-07-27T18:15:37.179Z,97337.00
2018-07-27T18:18:08.797Z,97335.00
2018-07-27T18:20:40.689Z,97335.00
2018-07-27T18:23:12.509Z,97331.00
2018-07-27T18:25:44.220Z,97335.00
2018-07-27T18:28:15.978Z,97338.00
2018-07-27T18:30:47.637Z,97335.00
2018-07-27T18:33:19.421Z,97336.00
2018-07-27T18:35:51.174Z,97338.00
2018-07-27T18:38:22.995Z,97339.00
2018-07-27T18:40:54.583Z,97335.00
2018-07-27T18:43:26.322Z,97337.00
2018-07-27T18:45:58.093Z,97335.00
2018-07-27T18:48:29.930Z,97335.00
2018-07-27T18:51:01.606Z,97332.00
2018-07-27T18:53:33.481Z,97334.00
2018-07-27T18:56:05.318Z,97334.00
2018-07-27T18:58:37.271Z,97333.00
2018-07-27T19:01:09.206Z,97338.00
2018-07-27T19:03:41.143Z,97339.00
2018-07-27T19:06:12.890Z,97343.00
2018-07-27T19:08:44.807Z,97342.00
2018-07-27T19:11:16.589Z,97342.00
2018-07-27T19:13:48.487Z,97343.00
2018-07-27T19:16:20.228Z,97345.00
2018-07-27T19:18:52.046Z,97347.00
2018-07-27T19:21:23.864Z,97350.00
2018-07-27T19:23:55.694Z,97353.00
2018-07-27T19:26:27.468Z,97359.00
2018-07-27T19:28:59.219Z,97354.00
2018-07-27T19:31:30.961Z,97351.00
2018-07-27T19:34:02.637Z,97356.00
2018-07-27T19:36:34.516Z,97359.00
2018-07-27T19:39:08.698Z,97358.00
2018-07-27T19:41:40.450Z,97359.00
2018-07-27T19:44:12.473Z,97362.00
2018-07-27T19:46:44.268Z,97359.00
2018-07-27T19:49:16.187Z,97363.00
2018-07-27T19:51:47.818Z,97361.00
2018-07-27T19:54:19.581Z,97360.00
2018-07-27T19:56:51.222Z,97352.00
2018-07-27T19:59:23.066Z,97354.00
2018-07-27T20:01:55.017Z,97350.00
2018-07-27T20:04:26.724Z,97351.00
2018-07-27T20:06:58.361Z,97348.00
2018-07-27T20:09:30.097Z,97348.00
2018-07-27T20:12:01.778Z,97344.00
2018-07-27T20:14:33.627Z,97343.00
2018-07-27T20:17:05.481Z,97351.00
2018-07-27T20:19:37.154Z,97350.00
2018-07-27T20:22:09.018Z,97349.00
2018-07-27T20:24:40.877Z,97353.00
2018-07-27T20:27:12.716Z,97357.00
2018-07-27T20:29:44.385Z,97357.00
2018-07-27T20:32:16.152Z,97358.00
2018-07-27T20:34:47.909Z,97365.00
2018-07-27T20:37:19.707Z,97370.00
2018-07-27T20:39:51.363Z,97367.00
2018-07-27T20:42:23.177Z,97366.00
2018-07-27T20:44:54.930Z,97366.00
2018-07-27T20:47:26.630Z,97363.00
2018-07-27T20:49:58.349Z,97359.00
2018-07-27T20:52:30.126Z,97364.00
2018-07-27T20:55:01.883Z,97363.00
2018-07-27T20:57:33.621Z,97360.00
2018-07-27T21:00:05.842Z,97365.00
2018-07-27T21:02:37.449Z,97361.00
2018-07-27T21:05:09.126Z,97360.00
2018-07-27T21:07:41.461Z,97365.00
2018-07-27T21:10:14.217Z,97370.00
2018-07-27T21:12:46.018Z,97367.00
2018-07-27T21:15:17.813Z,97367.00
2018-07-27T21:17:49.460Z,97369.00
2018-07-27T21:20:21.086Z,97368.00
2018-07-27T21:22:52.748Z,97371.00
2018-07-27T21:25:24.421Z,97366.00
2018-07-27T21:27:56.213Z,97370.00
2018-07-27T21:30:27.841Z,97371.00
2018-07-27T21:32:59.568Z,97368.00
2018-07-27T21:35:31.247Z,97369.00
2018-07-27T21:38:03.118Z,97366.00
2018-07-27T21:40:34.771Z,97359.00
2018-07-27T21:43:06.621Z,97363.00
2018-07-27T21:45:38.298Z,97360.00
2018-07-27T21:48:10.249Z,97358.00
2018-07-27T21:50:42.088Z,97355.00
2018-07-27T21:53:13.766Z,97345.00
2018-07-27T21:55:45.533Z,97347.00
2018-07-27T21:58:17.363Z,97354.00
2018-07-27T22:00:49.182Z,97345.00
2018-07-27T22:03:20.917Z,97355.00
2018-07-27T22:05:52.754Z,97352.00
2018-07-27T22:08:24.538Z,97350.00
2018-07-27T22:10:56.301Z,97348.00
2018-07-27T22:13:28.257Z,97349.00
2018-07-27T22:16:00.032Z,97347.00
2018-07-27T22:18:31.662Z,97346.00
2018-07-27T22:21:03.421Z,97340.00
2018-07-27T22:23:35.481Z,97333.00
2018-07-27T22:26:07.383Z,97331.00
2018-07-27T22:28:39.017Z,97330.00
2018-07-27T22:31:10.763Z,97328.00
2018-07-27T22:33:42.556Z,97324.00
2018-07-27T22:36:14.275Z,97321.00
2018-07-27T22:38:46.048Z,97325.00
2018-07-27T22:41:17.995Z,97324.00
2018-07-27T22:43:49.957Z,97325.00
2018-07-27T22:46:21.620Z,97327.00
2018-07-27T22:48:53.295Z,97327.00
2018-07-27T22:51:25.130Z,97331.00
2018-07-27T22:53:56.966Z,97325.00
2018-07-27T22:56:28.903Z,97329.00
2018-07-27T22:59:00.633Z,97331.00
2018-07-27T23:01:32.457Z,97327.00
2018-07-27T23:04:04.139Z,97323.00
2018-07-27T23:06:36.017Z,97325.00
2018-07-27T23:09:10.921Z,97329.00
2018-07-27T23:11:42.729Z,97328.00
2018-07-27T23:14:14.486Z,97323.00
2018-07-27T23:16:46.227Z,97326.00
2018-07-27T23:19:18.057Z,97325.00
2018-07-27T23:21:49.850Z,97326.00
2018-07-27T23:24:21.745Z,97325.00
2018-07-27T23:26:53.668Z,97322.00
2018-07-27T23:29:25.601Z,97318.00
2018-07-27T23:31:57.392Z,97318.00
2018-07-27T23:34:29.042Z,97317.00
2018-07-27T23:37:00.706Z,97321.00
2018-07-27T23:39:32.358Z,97317.00
2018-07-27T23:42:04.173Z,97308.00
2018-07-27T23:44:35.790Z,97313.00
2018-07-27T23:47:07.558Z,97310.00
2018-07-27T23:49:39.264Z,97312.00
2018-07-27T23:52:11.183Z,97309.00
2018-07-27T23:54:42.797Z,97307.00
2018-07-27T23:57:14.469Z,97309.00
2018-07-27T23:59:46.305Z,97311.00
